Time;durP1;ratioP1;P1;durP2;ratioP2;P2;SDS_P1;SDS_P2;PMS_P1;PMS_P2;Temp;Humidity;BMP_temperature;BMP_pressure;BME280_temperature;BME280_humidity;BME280_pressure;Samples;Min_cycle;Max_cycle;Signal;HPM_P1;HPM_P2
2024/02/27 00:00:03;;;;;;;14.30;3.83;;;3.20;99.90;;;;;;4958049;28;20122;-89
2024/02/27 00:02:29;;;;;;;8.05;2.90;;;3.20;99.90;;;;;;4964662;28;20022;-88
2024/02/27 00:04:54;;;;;;;10.32;3.03;;;3.30;99.90;;;;;;4976653;28;20152;-89
2024/02/27 00:07:20;;;;;;;10.43;3.17;;;3.20;99.90;;;;;;4960804;28;20476;-90
2024/02/27 00:09:46;;;;;;;6.57;3.22;;;3.20;99.90;;;;;;4961444;28;20514;-88
2024/02/27 00:12:12;;;;;;;9.35;2.90;;;3.20;99.90;;;;;;4964561;28;20038;-91
2024/02/27 00:14:38;;;;;;;8.90;2.83;;;3.10;99.90;;;;;;4978701;28;20027;-88
2024/02/27 00:17:04;;;;;;;10.90;3.10;;;3.10;99.90;;;;;;4969990;28;20042;-91
2024/02/27 00:19:31;;;;;;;9.90;2.70;;;3.10;99.90;;;;;;4971554;28;20353;-89
2024/02/27 00:21:56;;;;;;;7.82;3.22;;;3.00;99.90;;;;;;4969867;28;20031;-89
2024/02/27 00:24:22;;;;;;;9.27;3.15;;;3.00;99.90;;;;;;4983076;28;20366;-88
2024/02/27 00:26:48;;;;;;;8.63;3.13;;;2.90;99.90;;;;;;4982598;28;20054;-88
2024/02/27 00:29:14;;;;;;;7.05;3.47;;;2.90;99.90;;;;;;4980856;28;20464;-89
2024/02/27 00:31:39;;;;;;;8.60;3.42;;;2.90;99.90;;;;;;4981237;28;20039;-88
2024/02/27 00:34:05;;;;;;;7.88;3.40;;;2.90;99.90;;;;;;4980951;28;20451;-89
2024/02/27 00:36:31;;;;;;;10.40;3.25;;;2.90;99.90;;;;;;4977516;28;20074;-88
2024/02/27 00:38:56;;;;;;;11.05;3.17;;;2.90;99.90;;;;;;4961856;28;20027;-88
2024/02/27 00:41:23;;;;;;;5.05;3.00;;;2.90;99.90;;;;;;4961047;28;20432;-88
2024/02/27 00:43:48;;;;;;;10.10;3.83;;;2.90;99.90;;;;;;4964636;28;20027;-89
2024/02/27 00:46:14;;;;;;;7.13;3.53;;;3.00;99.90;;;;;;4959809;28;20188;-89
2024/02/27 00:48:40;;;;;;;7.57;2.75;;;2.90;99.90;;;;;;4961218;28;20073;-89
2024/02/27 00:51:06;;;;;;;7.93;2.75;;;2.90;99.90;;;;;;4961683;28;20031;-89
2024/02/27 00:53:31;;;;;;;8.57;2.88;;;2.90;99.90;;;;;;4966348;28;20034;-90
2024/02/27 00:55:57;;;;;;;4.43;2.55;;;2.90;99.90;;;;;;4976926;28;20023;-91
2024/02/27 00:58:23;;;;;;;7.57;3.22;;;2.80;99.90;;;;;;4959889;28;20039;-90
2024/02/27 01:00:49;;;;;;;5.63;2.97;;;2.80;99.90;;;;;;4960078;28;20038;-90
2024/02/27 01:03:15;;;;;;;9.05;3.35;;;2.80;99.90;;;;;;4963655;28;20373;-90
2024/02/27 01:05:43;;;;;;;6.80;3.15;;;2.80;99.90;;;;;;4975910;28;20027;-90
2024/02/27 01:08:09;;;;;;;9.25;3.13;;;2.80;99.90;;;;;;4959638;28;20484;-90
2024/02/27 01:10:35;;;;;;;7.82;3.30;;;2.80;99.90;;;;;;4959610;28;20118;-90
2024/02/27 01:13:01;;;;;;;7.72;2.80;;;2.80;99.90;;;;;;4960466;28;20041;-90
2024/02/27 01:15:27;;;;;;;6.28;3.13;;;2.80;99.90;;;;;;4975343;28;20109;-90
2024/02/27 01:17:52;;;;;;;7.07;2.88;;;2.80;99.90;;;;;;4959542;28;20026;-90
2024/02/27 01:20:18;;;;;;;5.78;3.05;;;2.80;99.90;;;;;;4959636;28;20436;-91
2024/02/27 01:22:44;;;;;;;6.68;2.67;;;2.80;99.90;;;;;;4959770;28;20057;-90
2024/02/27 01:25:12;;;;;;;6.15;2.85;;;2.80;99.90;;;;;;4971991;28;20031;-90
2024/02/27 01:27:38;;;;;;;5.38;2.83;;;2.80;99.90;;;;;;4959647;28;20023;-89
2024/02/27 01:30:04;;;;;;;5.25;2.20;;;2.80;99.90;;;;;;4959759;28;20023;-89
2024/02/27 01:32:30;;;;;;;6.50;2.70;;;2.70;99.90;;;;;;4959182;28;20039;-90
2024/02/27 01:34:57;;;;;;;4.07;2.30;;;2.70;99.90;;;;;;4960564;28;20400;-89
2024/02/27 01:37:23;;;;;;;4.45;2.13;;;2.60;99.90;;;;;;4974637;28;20054;-90
2024/02/27 01:39:49;;;;;;;6.22;2.50;;;2.60;99.90;;;;;;4975342;28;20465;-89
2024/02/27 01:42:14;;;;;;;7.53;2.72;;;2.50;99.90;;;;;;4979344;28;20041;-90
2024/02/27 01:44:51;;;;;;;6.90;2.83;;;2.50;99.90;;;;;;4975786;28;20038;-89
2024/02/27 01:47:18;;;;;;;7.43;3.15;;;2.50;99.90;;;;;;4985659;28;20060;-90
2024/02/27 01:49:44;;;;;;;8.80;2.78;;;2.50;99.90;;;;;;4977474;28;20022;-90
2024/02/27 01:52:12;;;;;;;5.65;2.70;;;2.40;99.90;;;;;;4980561;28;20043;-90
2024/02/27 01:54:37;;;;;;;6.00;2.85;;;2.30;99.90;;;;;;4985395;28;20427;-90
2024/02/27 01:57:05;;;;;;;10.20;2.38;;;2.30;99.90;;;;;;4985876;28;20031;-89
2024/02/27 01:59:31;;;;;;;5.75;2.60;;;2.30;99.90;;;;;;4979788;28;20034;-90
2024/02/27 02:01:59;;;;;;;9.80;2.72;;;2.30;99.90;;;;;;4978839;28;20031;-90
2024/02/27 02:04:26;;;;;;;8.07;2.25;;;2.20;99.90;;;;;;4963806;28;20050;-89
2024/02/27 02:06:52;;;;;;;7.53;2.03;;;2.30;99.90;;;;;;4975889;28;20050;-89
2024/02/27 02:09:24;;;;;;;6.18;2.08;;;2.20;99.90;;;;;;4975768;28;20030;-88
2024/02/27 02:11:50;;;;;;;7.32;2.55;;;2.20;99.90;;;;;;4975555;28;20043;-89
2024/02/27 02:14:15;;;;;;;8.98;2.47;;;2.10;99.90;;;;;;4978536;28;20122;-90
2024/02/27 02:16:41;;;;;;;11.38;3.10;;;2.10;99.90;;;;;;4977562;28;20066;-87
2024/02/27 02:19:07;;;;;;;7.38;2.90;;;2.00;99.90;;;;;;4989714;28;20037;-90
2024/02/27 02:21:33;;;;;;;5.78;2.67;;;2.00;99.90;;;;;;4958448;28;20118;-90
2024/02/27 02:24:01;;;;;;;9.13;3.08;;;1.90;99.90;;;;;;4978460;28;20039;-90
2024/02/27 02:26:29;;;;;;;7.15;2.67;;;1.90;99.90;;;;;;4982498;28;20473;-89
2024/02/27 02:28:54;;;;;;;9.73;2.75;;;1.80;99.90;;;;;;4974119;28;20035;-89
2024/02/27 02:31:20;;;;;;;6.00;2.60;;;1.80;99.90;;;;;;4974276;28;20125;-88
2024/02/27 02:33:46;;;;;;;9.00;2.30;;;1.80;99.90;;;;;;4984079;28;20031;-88
2024/02/27 02:36:12;;;;;;;4.25;1.67;;;1.70;99.90;;;;;;4974252;28;20053;-88
2024/02/27 02:38:37;;;;;;;6.05;2.50;;;1.70;99.90;;;;;;4976031;28;20085;-89
2024/02/27 02:41:03;;;;;;;3.55;2.22;;;1.70;99.90;;;;;;4983327;28;20035;-88
2024/02/27 02:43:29;;;;;;;10.98;2.70;;;1.60;99.90;;;;;;4976065;28;20019;-89
2024/02/27 02:45:54;;;;;;;11.40;2.70;;;1.70;99.90;;;;;;4967009;28;20073;-88
2024/02/27 02:48:20;;;;;;;9.38;2.95;;;1.70;99.90;;;;;;4975877;28;20233;-90
2024/02/27 02:50:46;;;;;;;5.40;2.65;;;1.70;99.90;;;;;;4973311;28;20034;-90
2024/02/27 02:53:12;;;;;;;9.52;3.72;;;1.50;99.90;;;;;;4957561;28;20027;-90
2024/02/27 02:55:42;;;;;;;9.10;4.15;;;1.50;99.90;;;;;;4964575;28;20094;-90
2024/02/27 02:58:11;;;;;;;7.23;3.50;;;1.40;99.90;;;;;;4970240;28;20037;-89
2024/02/27 03:00:37;;;;;;;8.25;3.20;;;1.40;99.90;;;;;;4958575;28;20259;-90
2024/02/27 03:03:03;;;;;;;6.82;3.10;;;1.40;99.90;;;;;;4957828;28;20027;-90
2024/02/27 03:05:29;;;;;;;10.75;3.58;;;1.40;99.90;;;;;;4957698;28;20027;-90
2024/02/27 03:07:54;;;;;;;8.75;3.70;;;1.30;99.90;;;;;;4960605;28;20503;-89
2024/02/27 03:10:20;;;;;;;9.30;3.63;;;1.30;99.90;;;;;;4973792;28;20093;-90
2024/02/27 03:12:46;;;;;;;8.48;3.63;;;1.30;99.90;;;;;;4957686;28;20790;-90
2024/02/27 03:15:12;;;;;;;9.77;4.03;;;1.20;99.90;;;;;;4957497;28;20022;-89
2024/02/27 03:17:38;;;;;;;11.40;4.53;;;1.20;99.90;;;;;;4960651;28;20022;-89
2024/02/27 03:20:05;;;;;;;11.93;4.53;;;1.20;99.90;;;;;;4976731;28;20041;-90
2024/02/27 03:22:34;;;;;;;11.18;4.25;;;1.20;99.90;;;;;;4977033;28;20061;-89
2024/02/27 03:25:04;;;;;;;8.98;3.53;;;1.10;99.90;;;;;;4976713;28;20022;-90
2024/02/27 03:27:30;;;;;;;15.25;6.88;;;1.10;99.90;;;;;;4974469;28;20147;-90
2024/02/27 03:29:56;;;;;;;26.40;8.57;;;1.10;99.90;;;;;;4975891;28;20098;-90
2024/02/27 03:32:22;;;;;;;22.13;7.57;;;1.10;99.90;;;;;;4976725;28;20038;-89
2024/02/27 03:34:47;;;;;;;18.90;8.75;;;1.10;99.90;;;;;;4978645;28;20029;-89
2024/02/27 03:37:15;;;;;;;17.58;6.57;;;1.10;99.90;;;;;;4980562;28;20030;-90
2024/02/27 03:39:42;;;;;;;17.38;6.03;;;1.10;99.90;;;;;;4976871;28;20093;-90
2024/02/27 03:42:08;;;;;;;13.93;5.00;;;1.00;99.90;;;;;;4961425;28;20060;-89
2024/02/27 03:44:33;;;;;;;18.45;7.20;;;1.00;99.90;;;;;;4961436;28;20023;-90
2024/02/27 03:46:59;;;;;;;26.13;8.15;;;1.00;99.90;;;;;;4961877;28;20062;-89
2024/02/27 03:49:25;;;;;;;21.70;7.95;;;0.90;99.90;;;;;;4966566;28;20034;-90
2024/02/27 03:51:53;;;;;;;21.05;6.93;;;0.80;99.90;;;;;;4969001;28;20034;-89
2024/02/27 03:54:21;;;;;;;19.20;7.28;;;0.70;99.90;;;;;;4969519;28;20058;-90
2024/02/27 03:56:46;;;;;;;20.20;6.40;;;0.70;99.90;;;;;;4967811;28;20081;-89
2024/02/27 03:59:12;;;;;;;19.85;7.65;;;0.60;99.90;;;;;;4967421;28;20027;-89
2024/02/27 04:01:38;;;;;;;21.42;6.25;;;0.60;99.90;;;;;;4970022;28;20504;-90
2024/02/27 04:04:04;;;;;;;20.80;7.25;;;0.60;99.90;;;;;;4978421;28;20034;-89
2024/02/27 04:06:30;;;;;;;19.58;7.15;;;0.60;99.90;;;;;;4978141;28;20038;-89
2024/02/27 04:08:56;;;;;;;28.92;7.72;;;0.60;99.90;;;;;;4977554;28;20026;-90
2024/02/27 04:11:21;;;;;;;17.17;7.38;;;0.60;99.90;;;;;;4977396;28;20399;-90
2024/02/27 04:13:47;;;;;;;19.55;6.75;;;0.60;99.90;;;;;;4961270;28;20023;-90
2024/02/27 04:16:13;;;;;;;19.77;7.13;;;0.60;99.90;;;;;;4971188;28;20019;-89
2024/02/27 04:18:38;;;;;;;17.13;6.53;;;0.60;99.90;;;;;;4977260;28;20049;-90
2024/02/27 04:21:04;;;;;;;23.02;6.70;;;0.60;99.90;;;;;;4976453;28;20035;-89
2024/02/27 04:23:30;;;;;;;17.00;6.72;;;0.60;99.90;;;;;;4960637;28;20027;-89
2024/02/27 04:25:56;;;;;;;21.00;7.18;;;0.60;99.90;;;;;;4960241;28;20042;-90
2024/02/27 04:28:22;;;;;;;15.00;6.15;;;0.70;99.90;;;;;;4960803;28;20109;-90
2024/02/27 04:30:49;;;;;;;15.65;5.40;;;0.70;99.90;;;;;;4978066;28;20594;-90
2024/02/27 04:33:14;;;;;;;20.80;6.82;;;0.70;99.90;;;;;;4976751;28;20073;-90
2024/02/27 04:35:40;;;;;;;25.58;6.78;;;0.70;99.90;;;;;;4977212;28;20027;-90
2024/02/27 04:38:06;;;;;;;24.30;7.82;;;0.70;99.90;;;;;;4976726;28;20030;-89
2024/02/27 04:40:32;;;;;;;26.70;8.30;;;0.70;99.90;;;;;;4971030;28;20030;-89
2024/02/27 04:42:58;;;;;;;26.02;8.18;;;0.70;99.90;;;;;;4960661;28;20027;-90
2024/02/27 04:45:23;;;;;;;29.23;8.27;;;0.70;99.90;;;;;;4965274;28;20065;-90
2024/02/27 04:47:49;;;;;;;42.83;8.82;;;0.70;99.90;;;;;;4982672;28;20034;-89
2024/02/27 04:50:15;;;;;;;27.83;8.50;;;0.70;99.90;;;;;;4995295;28;20030;-89
2024/02/27 04:52:40;;;;;;;31.98;8.05;;;0.70;99.90;;;;;;4995899;28;20057;-89
2024/02/27 04:55:07;;;;;;;32.28;9.88;;;0.70;99.90;;;;;;4995428;28;20119;-90
2024/02/27 04:57:32;;;;;;;41.92;10.57;;;0.70;99.90;;;;;;4996978;28;20547;-90
2024/02/27 04:59:59;;;;;;;35.08;8.20;;;0.70;99.90;;;;;;5001702;28;20064;-90
2024/02/27 05:02:25;;;;;;;62.80;12.07;;;0.70;99.90;;;;;;5001259;28;20041;-90
2024/02/27 05:04:50;;;;;;;33.58;8.85;;;0.70;99.90;;;;;;4998447;28;20048;-90
2024/02/27 05:07:16;;;;;;;38.85;8.00;;;0.70;99.90;;;;;;4997434;28;20068;-90
2024/02/27 05:09:42;;;;;;;24.25;7.82;;;0.70;99.90;;;;;;4994475;28;20038;-90
2024/02/27 05:12:08;;;;;;;31.80;8.07;;;0.70;99.90;;;;;;4997885;28;20034;-89
2024/02/27 05:14:33;;;;;;;30.48;8.57;;;0.70;99.90;;;;;;4998153;28;20045;-89
2024/02/27 05:16:59;;;;;;;33.95;8.50;;;0.70;99.90;;;;;;4997889;28;20072;-90
2024/02/27 05:19:25;;;;;;;96.45;10.65;;;0.70;99.90;;;;;;4991828;28;20476;-90
2024/02/27 05:21:50;;;;;;;36.05;7.78;;;0.70;99.90;;;;;;4990771;28;20038;-90
2024/02/27 05:24:16;;;;;;;47.53;8.27;;;0.70;99.90;;;;;;4994443;28;20030;-90
2024/02/27 05:26:42;;;;;;;51.03;10.70;;;0.60;99.90;;;;;;4994464;28;20037;-90
2024/02/27 05:29:07;;;;;;;75.57;10.73;;;0.70;99.90;;;;;;4996584;28;20026;-89
2024/02/27 05:31:35;;;;;;;45.58;7.32;;;0.60;99.90;;;;;;4985715;28;20418;-91
2024/02/27 05:34:01;;;;;;;80.78;8.30;;;0.60;99.90;;;;;;4977254;28;20042;-89
2024/02/27 05:36:27;;;;;;;112.25;9.80;;;0.60;99.90;;;;;;4978490;28;20022;-90
2024/02/27 05:38:56;;;;;;;32.97;7.18;;;0.60;99.90;;;;;;4984676;28;20626;-90
2024/02/27 05:41:22;;;;;;;23.27;6.57;;;0.60;99.90;;;;;;4977867;28;20029;-89
2024/02/27 05:43:48;;;;;;;49.35;7.15;;;0.60;99.90;;;;;;4977879;28;20580;-88
2024/02/27 05:46:14;;;;;;;60.78;6.68;;;0.60;99.90;;;;;;4965520;28;20219;-90
2024/02/27 05:48:41;;;;;;;33.30;7.15;;;0.60;99.90;;;;;;4961478;28;20210;-88
2024/02/27 05:51:08;;;;;;;52.22;6.65;;;0.60;99.90;;;;;;4977485;28;20105;-88
2024/02/27 05:53:34;;;;;;;46.67;7.50;;;0.60;99.90;;;;;;4977586;28;20023;-91
2024/02/27 05:56:00;;;;;;;37.58;6.80;;;0.60;99.90;;;;;;4978064;28;20018;-89
2024/02/27 05:58:26;;;;;;;49.10;7.65;;;0.60;99.90;;;;;;4975450;28;20045;-88
2024/02/27 06:00:53;;;;;;;101.70;10.32;;;0.60;99.90;;;;;;4976801;28;20023;-89
2024/02/27 06:03:19;;;;;;;19.90;6.30;;;0.60;99.90;;;;;;4966781;28;20125;-89
2024/02/27 06:05:45;;;;;;;45.67;7.43;;;0.60;99.90;;;;;;4958592;28;20067;-88
2024/02/27 06:08:12;;;;;;;26.27;6.88;;;0.50;99.90;;;;;;4958445;28;20058;-89
2024/02/27 06:10:39;;;;;;;53.72;7.50;;;0.50;99.90;;;;;;4958978;28;20022;-88
2024/02/27 06:13:04;;;;;;;93.85;7.95;;;0.50;99.90;;;;;;4958220;28;20042;-89
2024/02/27 06:15:30;;;;;;;39.42;6.55;;;0.40;99.90;;;;;;4958208;28;20023;-89
2024/02/27 06:17:56;;;;;;;22.50;6.80;;;0.40;99.90;;;;;;4958231;28;20030;-89
2024/02/27 06:23:06;;;;;;;37.92;6.28;;;0.50;99.90;;;;;;4985424;28;20046;-89
2024/02/27 06:25:31;;;;;;;22.52;5.85;;;0.50;99.90;;;;;;4975068;28;20031;-90
2024/02/27 06:27:57;;;;;;;50.08;7.70;;;0.50;99.90;;;;;;4978496;28;20035;-89
2024/02/27 06:30:23;;;;;;;22.20;6.18;;;0.50;99.90;;;;;;4972912;28;20023;-89
2024/02/27 06:32:49;;;;;;;18.10;5.97;;;0.50;99.90;;;;;;4973151;28;20038;-88
2024/02/27 06:35:14;;;;;;;31.85;7.60;;;0.40;99.90;;;;;;4973628;28;20035;-88
2024/02/27 06:37:41;;;;;;;51.10;7.18;;;0.40;99.90;;;;;;4960925;28;20019;-90
2024/02/27 06:40:07;;;;;;;26.48;6.80;;;0.40;99.90;;;;;;4957677;28;20374;-89
2024/02/27 06:42:41;;;;;;;29.83;7.50;;;0.40;99.90;;;;;;4957440;28;20045;-89
2024/02/27 06:45:08;;;;;;;21.65;6.97;;;0.40;99.90;;;;;;4957445;28;20047;-90
2024/02/27 06:47:36;;;;;;;21.33;7.95;;;0.40;99.90;;;;;;4962802;28;20082;-89
2024/02/27 06:50:02;;;;;;;20.27;7.55;;;0.40;99.90;;;;;;4971606;28;20034;-89
2024/02/27 06:52:28;;;;;;;18.58;6.82;;;0.40;99.90;;;;;;4972510;28;20527;-89
2024/02/27 06:54:54;;;;;;;22.52;8.63;;;0.40;99.90;;;;;;4972628;28;20041;-90
2024/02/27 06:57:19;;;;;;;24.08;7.43;;;0.30;99.90;;;;;;4957761;28;20042;-89
2024/02/27 06:59:45;;;;;;;22.98;8.20;;;0.30;99.90;;;;;;4965458;28;20019;-89
2024/02/27 07:02:11;;;;;;;15.73;6.80;;;0.30;99.90;;;;;;4975794;28;20448;-89
2024/02/27 07:04:37;;;;;;;22.17;7.75;;;0.30;99.90;;;;;;4976685;28;20105;-88
2024/02/27 07:07:03;;;;;;;17.25;6.75;;;0.30;99.90;;;;;;4974935;28;20037;-90
2024/02/27 07:09:30;;;;;;;17.35;6.90;;;0.40;99.90;;;;;;4974128;28;20018;-88
2024/02/27 07:11:59;;;;;;;22.15;8.13;;;0.40;99.90;;;;;;4970805;28;20047;-89
2024/02/27 07:14:27;;;;;;;17.77;6.88;;;0.50;99.90;;;;;;4982566;28;20090;-90
2024/02/27 07:16:53;;;;;;;19.00;7.03;;;0.60;99.90;;;;;;4983311;28;20018;-88
2024/02/27 07:19:21;;;;;;;14.40;6.95;;;0.70;99.90;;;;;;4983731;28;20061;-90
2024/02/27 07:21:50;;;;;;;18.60;6.80;;;0.80;99.90;;;;;;4979016;28;20110;-89
2024/02/27 07:24:17;;;;;;;17.60;8.05;;;0.90;99.90;;;;;;4978790;28;20066;-89
2024/02/27 07:26:43;;;;;;;20.77;8.88;;;1.00;99.90;;;;;;4961714;28;20392;-88
2024/02/27 07:29:09;;;;;;;19.60;7.72;;;1.10;99.90;;;;;;4957868;28;20035;-87
2024/02/27 07:31:35;;;;;;;18.45;8.85;;;1.10;99.90;;;;;;4957305;28;20046;-90
2024/02/27 07:34:01;;;;;;;21.02;8.55;;;1.10;99.90;;;;;;4973878;28;20053;-88
2024/02/27 07:36:27;;;;;;;20.33;9.20;;;1.20;99.90;;;;;;4976674;28;20034;-88
2024/02/27 07:38:53;;;;;;;17.15;7.85;;;1.30;99.90;;;;;;4978406;28;20036;-89
2024/02/27 07:41:19;;;;;;;19.05;8.23;;;1.40;99.90;;;;;;4986807;28;20102;-89
2024/02/27 07:43:45;;;;;;;22.13;8.25;;;1.40;99.90;;;;;;4983836;28;20066;-88
2024/02/27 07:46:15;;;;;;;16.42;7.60;;;1.40;99.90;;;;;;4977518;28;20048;-90
2024/02/27 07:48:44;;;;;;;21.27;9.23;;;1.40;99.90;;;;;;4977603;28;20022;-89
2024/02/27 07:51:29;;;;;;;20.60;8.10;;;1.50;99.90;;;;;;4979540;28;20054;-91
2024/02/27 07:53:56;;;;;;;22.95;8.27;;;1.50;99.90;;;;;;4996922;28;20049;-89
2024/02/27 07:56:22;;;;;;;19.02;8.57;;;1.60;99.90;;;;;;4959841;28;20023;-89
2024/02/27 07:58:47;;;;;;;18.95;7.78;;;1.60;99.90;;;;;;4991966;28;20106;-88
2024/02/27 08:01:13;;;;;;;17.80;7.95;;;1.60;99.90;;;;;;4981219;28;20384;-90
2024/02/27 08:03:39;;;;;;;18.25;8.10;;;1.70;99.90;;;;;;4979574;28;20041;-89
2024/02/27 08:06:08;;;;;;;19.42;8.40;;;1.70;99.90;;;;;;4978367;28;20050;-89
2024/02/27 08:08:35;;;;;;;19.30;8.30;;;1.80;99.90;;;;;;4961051;28;20030;-89
2024/02/27 08:11:03;;;;;;;15.20;6.90;;;1.90;99.90;;;;;;4959868;28;20058;-90
2024/02/27 08:13:30;;;;;;;15.30;6.93;;;2.00;99.90;;;;;;4958871;28;20441;-90
2024/02/27 08:15:56;;;;;;;15.93;6.35;;;2.00;99.90;;;;;;4957810;28;20037;-90
2024/02/27 08:18:23;;;;;;;12.88;5.85;;;2.10;99.90;;;;;;4959176;28;20543;-92
2024/02/27 08:20:49;;;;;;;16.75;6.22;;;2.10;99.90;;;;;;4964702;28;20023;-91
2024/02/27 08:23:16;;;;;;;15.95;7.07;;;2.20;99.90;;;;;;4988240;28;20076;-93
2024/02/27 08:25:43;;;;;;;11.23;5.93;;;2.20;99.90;;;;;;4959444;28;20031;-91
2024/02/27 08:28:09;;;;;;;13.40;5.60;;;2.30;99.90;;;;;;4977379;28;20462;-90
2024/02/27 08:30:35;;;;;;;13.07;6.45;;;2.30;99.90;;;;;;4982598;28;20034;-90
2024/02/27 08:33:03;;;;;;;17.45;6.97;;;2.40;99.90;;;;;;4982033;28;20116;-91
2024/02/27 08:35:30;;;;;;;15.70;5.82;;;2.50;99.90;;;;;;4965115;28;20030;-90
2024/02/27 08:37:58;;;;;;;15.13;6.70;;;2.50;99.90;;;;;;4977118;28;20027;-90
2024/02/27 08:40:28;;;;;;;21.63;8.40;;;2.50;99.90;;;;;;4964541;28;20051;-89
2024/02/27 08:42:54;;;;;;;16.73;7.15;;;2.60;99.90;;;;;;4982479;28;20108;-90
2024/02/27 08:45:20;;;;;;;26.33;11.25;;;2.60;99.90;;;;;;4963608;28;20082;-90
2024/02/27 08:47:46;;;;;;;18.13;7.43;;;2.60;99.90;;;;;;5005045;28;20025;-89
2024/02/27 08:50:13;;;;;;;18.27;7.93;;;2.50;99.90;;;;;;4986439;28;20447;-90
2024/02/27 08:52:39;;;;;;;22.90;8.20;;;2.50;99.90;;;;;;4982971;28;20510;-89
2024/02/27 08:55:06;;;;;;;18.75;7.35;;;2.50;99.90;;;;;;4994587;28;20085;-91
2024/02/27 08:57:32;;;;;;;16.80;6.43;;;2.60;99.90;;;;;;4989353;28;20030;-91
2024/02/27 08:59:58;;;;;;;17.75;7.70;;;2.60;99.90;;;;;;4984525;28;20037;-90
2024/02/27 09:02:24;;;;;;;16.27;7.63;;;2.60;99.90;;;;;;4997800;28;20037;-91
2024/02/27 09:04:50;;;;;;;17.42;7.13;;;2.70;99.90;;;;;;4991468;28;20104;-89
2024/02/27 09:07:16;;;;;;;16.27;6.88;;;2.70;99.90;;;;;;4990817;28;20069;-91
2024/02/27 09:09:45;;;;;;;17.90;7.10;;;2.70;99.90;;;;;;4978957;28;20105;-91
2024/02/27 09:12:11;;;;;;;17.38;7.13;;;2.70;99.90;;;;;;4996062;28;20038;-90
2024/02/27 09:14:38;;;;;;;17.80;7.28;;;2.70;99.90;;;;;;4989023;28;20026;-91
2024/02/27 09:17:04;;;;;;;13.82;6.63;;;2.70;99.90;;;;;;4988087;28;20444;-91
2024/02/27 09:19:30;;;;;;;12.88;6.75;;;2.80;99.90;;;;;;4995593;28;20018;-91
2024/02/27 09:21:56;;;;;;;13.43;6.20;;;2.80;99.90;;;;;;4996847;28;20034;-90
2024/02/27 09:24:23;;;;;;;16.00;7.35;;;2.90;99.90;;;;;;4997596;28;20468;-90
2024/02/27 09:26:49;;;;;;;12.82;6.38;;;2.90;99.90;;;;;;4997200;28;20084;-91
2024/02/27 09:29:15;;;;;;;11.80;5.32;;;2.90;99.90;;;;;;4997096;28;20030;-90
2024/02/27 09:31:45;;;;;;;10.82;6.03;;;2.90;99.90;;;;;;4997089;28;20406;-90
2024/02/27 09:34:11;;;;;;;9.95;5.10;;;3.00;99.90;;;;;;4994782;28;20081;-90
2024/02/27 09:36:37;;;;;;;13.20;5.85;;;3.00;99.90;;;;;;4980130;28;20128;-91
2024/02/27 09:39:03;;;;;;;10.70;5.03;;;3.00;99.90;;;;;;4993819;28;20045;-91
2024/02/27 09:41:38;;;;;;;13.38;5.88;;;3.10;99.90;;;;;;5013785;28;20025;-91
2024/02/27 09:44:04;;;;;;;8.93;4.88;;;3.10;99.90;;;;;;4998043;28;20026;-90
2024/02/27 09:46:33;;;;;;;11.38;5.80;;;3.10;99.90;;;;;;4977246;28;20065;-91
2024/02/27 09:49:02;;;;;;;12.10;5.80;;;3.10;99.90;;;;;;4983216;28;20022;-90
2024/02/27 09:51:29;;;;;;;11.60;5.03;;;3.20;99.90;;;;;;4985380;28;20038;-91
2024/02/27 09:53:59;;;;;;;7.85;4.60;;;3.20;99.90;;;;;;4978152;28;20031;-90
2024/02/27 09:56:25;;;;;;;11.10;5.10;;;3.20;99.90;;;;;;4978467;28;20030;-90
2024/02/27 09:58:51;;;;;;;9.65;4.80;;;3.30;99.90;;;;;;4983541;28;20066;-91
2024/02/27 10:01:19;;;;;;;9.95;4.60;;;3.30;99.90;;;;;;4989396;28;20472;-91
2024/02/27 10:03:47;;;;;;;6.75;4.13;;;3.40;99.90;;;;;;4978007;28;20030;-90
2024/02/27 10:06:15;;;;;;;6.85;3.92;;;3.40;99.90;;;;;;4976719;28;20022;-91
2024/02/27 10:08:47;;;;;;;5.68;3.47;;;3.50;99.90;;;;;;4977093;28;20130;-91
2024/02/27 10:11:14;;;;;;;8.98;4.40;;;3.50;99.90;;;;;;4960527;28;20023;-90
2024/02/27 10:13:40;;;;;;;9.93;4.47;;;3.60;99.90;;;;;;4983214;28;20077;-90
2024/02/27 10:16:06;;;;;;;6.45;4.07;;;3.60;99.90;;;;;;4995390;28;20029;-89
2024/02/27 10:18:32;;;;;;;8.07;4.07;;;3.70;99.90;;;;;;4996993;28;20121;-89
2024/02/27 10:20:58;;;;;;;9.70;4.45;;;3.70;99.90;;;;;;4997283;28;20049;-90
2024/02/27 10:23:23;;;;;;;7.40;4.18;;;3.80;99.90;;;;;;4968584;28;20062;-91
2024/02/27 10:25:51;;;;;;;10.55;4.28;;;3.80;99.90;;;;;;4978571;28;20084;-89
2024/02/27 10:28:21;;;;;;;9.80;3.85;;;3.80;99.90;;;;;;4977650;28;20113;-89
2024/02/27 10:30:47;;;;;;;11.27;4.20;;;3.90;99.90;;;;;;4976960;28;20022;-89
2024/02/27 10:33:15;;;;;;;7.85;4.05;;;4.00;99.90;;;;;;4974315;28;20047;-91
2024/02/27 10:35:41;;;;;;;8.30;5.10;;;4.00;99.90;;;;;;4977597;28;20026;-90
2024/02/27 10:38:18;;;;;;;8.25;4.50;;;4.00;99.90;;;;;;4977277;28;20053;-90
2024/02/27 10:40:44;;;;;;;9.90;3.95;;;4.00;99.90;;;;;;4973230;28;20027;-91
2024/02/27 10:43:10;;;;;;;10.07;4.00;;;4.10;99.90;;;;;;4970449;28;20138;-90
2024/02/27 10:45:36;;;;;;;10.88;4.95;;;4.10;99.90;;;;;;4973668;28;20050;-90
2024/02/27 10:48:04;;;;;;;13.45;5.95;;;4.10;99.90;;;;;;4976380;28;20026;-91
2024/02/27 10:50:30;;;;;;;13.45;5.00;;;4.10;99.90;;;;;;4976511;28;20117;-90
2024/02/27 10:52:59;;;;;;;9.60;4.10;;;4.20;99.90;;;;;;4975425;28;20085;-91
2024/02/27 10:55:28;;;;;;;7.78;4.07;;;4.20;99.90;;;;;;4977332;28;20023;-90
2024/02/27 10:57:59;;;;;;;10.18;3.72;;;4.20;99.90;;;;;;4977317;28;20030;-90
2024/02/27 11:00:26;;;;;;;6.75;4.00;;;4.30;99.90;;;;;;4977555;28;20018;-91
2024/02/27 11:02:57;;;;;;;7.20;4.05;;;4.40;99.90;;;;;;4973120;28;20027;-90
2024/02/27 11:05:27;;;;;;;8.32;4.00;;;4.40;99.90;;;;;;4983260;28;20113;-90
2024/02/27 11:07:57;;;;;;;8.55;4.03;;;4.50;99.90;;;;;;4949684;28;20018;-90
2024/02/27 11:10:29;;;;;;;7.07;3.80;;;4.60;99.90;;;;;;4965780;28;20034;-90
2024/02/27 11:12:56;;;;;;;8.25;4.18;;;4.70;99.90;;;;;;4951548;28;20152;-91
2024/02/27 11:15:24;;;;;;;8.07;4.30;;;4.80;99.90;;;;;;4967910;28;20019;-90
2024/02/27 11:18:01;;;;;;;7.35;4.38;;;4.90;99.90;;;;;;4968666;28;20080;-90
2024/02/27 11:20:31;;;;;;;8.45;5.53;;;5.00;99.90;;;;;;4964172;28;20042;-88
2024/02/27 11:22:58;;;;;;;10.60;4.28;;;5.00;99.90;;;;;;4968178;28;20026;-91
2024/02/27 11:25:24;;;;;;;10.77;4.65;;;5.10;99.90;;;;;;4969496;28;20026;-91
2024/02/27 11:27:56;;;;;;;9.38;4.60;;;5.20;99.90;;;;;;4972803;28;20074;-89
2024/02/27 11:30:24;;;;;;;9.20;5.43;;;5.20;99.90;;;;;;4971498;28;20019;-90
2024/02/27 11:32:50;;;;;;;8.80;4.15;;;5.30;99.90;;;;;;4979889;28;20035;-89
2024/02/27 11:35:17;;;;;;;8.55;4.72;;;5.40;99.90;;;;;;4972786;28;20018;-90
2024/02/27 11:37:43;;;;;;;9.60;5.60;;;5.40;99.90;;;;;;4970959;28;20026;-91
2024/02/27 11:40:10;;;;;;;9.02;5.00;;;5.40;99.90;;;;;;4971168;28;20177;-90
2024/02/27 11:42:43;;;;;;;11.13;5.72;;;5.40;99.90;;;;;;4971726;28;20031;-91
2024/02/27 11:45:17;;;;;;;8.82;5.32;;;5.40;99.90;;;;;;4970402;28;20043;-91
2024/02/27 11:47:51;;;;;;;9.55;4.05;;;5.50;99.90;;;;;;4976896;28;20032;-91
2024/02/27 11:50:36;;;;;;;10.18;4.65;;;5.50;99.90;;;;;;4972610;28;20521;-90
2024/02/27 11:53:20;;;;;;;11.25;5.13;;;5.50;99.90;;;;;;4987169;28;20054;-92
2024/02/27 11:55:55;;;;;;;7.72;4.45;;;5.50;99.90;;;;;;4973840;28;20036;-91
2024/02/27 11:58:21;;;;;;;10.90;5.25;;;5.50;99.90;;;;;;4974352;28;20022;-91
2024/02/27 12:00:48;;;;;;;6.30;3.15;;;5.50;99.90;;;;;;4972786;28;20054;-90
2024/02/27 12:03:15;;;;;;;9.95;4.35;;;5.50;99.90;;;;;;4968305;28;20031;-90
2024/02/27 12:05:46;;;;;;;7.35;4.40;;;5.50;99.90;;;;;;4971137;28;20444;-90
2024/02/27 12:08:12;;;;;;;8.13;4.00;;;5.50;99.90;;;;;;4983288;28;20029;-91
2024/02/27 12:10:38;;;;;;;13.60;4.43;;;5.50;99.90;;;;;;4977412;28;20384;-89
2024/02/27 12:13:04;;;;;;;8.02;4.22;;;5.60;99.90;;;;;;4976120;28;20045;-89
2024/02/27 12:15:30;;;;;;;9.35;4.88;;;5.60;99.90;;;;;;4975690;28;20023;-90
2024/02/27 12:17:55;;;;;;;8.15;4.22;;;5.60;99.90;;;;;;4978694;28;20156;-90
2024/02/27 12:20:21;;;;;;;8.20;4.25;;;5.60;99.90;;;;;;4977904;28;20047;-88
2024/02/27 12:22:50;;;;;;;8.30;4.57;;;5.70;99.90;;;;;;4971908;28;20499;-90
2024/02/27 12:25:16;;;;;;;13.93;5.65;;;5.70;99.90;;;;;;4970079;28;20019;-90
2024/02/27 12:27:43;;;;;;;5.40;3.80;;;5.80;99.90;;;;;;4976483;28;20033;-89
2024/02/27 12:30:10;;;;;;;7.43;3.80;;;6.00;99.90;;;;;;4973029;28;20038;-89
2024/02/27 12:32:40;;;;;;;4.03;2.17;;;6.10;99.90;;;;;;4970762;28;20038;-90
2024/02/27 12:35:07;;;;;;;6.72;4.03;;;6.20;99.90;;;;;;4970624;28;20045;-89
2024/02/27 12:37:44;;;;;;;8.80;3.67;;;6.30;99.90;;;;;;4969458;28;20027;-90
2024/02/27 12:40:12;;;;;;;10.45;4.05;;;6.40;99.90;;;;;;4972486;28;20023;-89
2024/02/27 12:42:42;;;;;;;9.27;3.25;;;6.40;99.90;;;;;;4970993;28;20026;-89
2024/02/27 12:45:10;;;;;;;5.80;2.88;;;6.40;99.90;;;;;;4969423;28;20042;-89
2024/02/27 12:47:37;;;;;;;7.82;4.22;;;6.40;99.90;;;;;;4968294;28;20510;-89
2024/02/27 12:50:03;;;;;;;6.60;3.50;;;6.40;99.90;;;;;;4968389;28;20485;-90